Time;durP1;ratioP1;P1;durP2;ratioP2;P2;SDS_P1;SDS_P2;PMS_P1;PMS_P2;Temp;Humidity;BMP_temperature;BMP_pressure;BME280_temperature;BME280_humidity;BME280_pressure;Samples;Min_cycle;Max_cycle;Signal;HPM_P1;HPM_P2
2021/10/28 00:22:06;;;;;;;8.23;4.95;;;;;;;;;;21087295;28;20048;-60
2021/10/28 00:32:09;;;;;;;12.80;4.57;;;;;;;;;;21086468;28;20048;-61
2021/10/28 00:42:11;;;;;;;9.07;4.57;;;;;;;;;;21084661;28;20040;-61
2021/10/28 00:52:14;;;;;;;9.93;4.53;;;;;;;;;;21084059;28;20056;-61
2021/10/28 01:02:16;;;;;;;12.98;5.30;;;;;;;;;;21083808;28;20066;-61
2021/10/28 01:12:19;;;;;;;10.95;4.57;;;;;;;;;;21083087;28;20080;-61
2021/10/28 01:22:26;;;;;;;12.27;4.88;;;;;;;;;;21082262;28;20040;-61
2021/10/28 01:32:31;;;;;;;9.85;4.72;;;;;;;;;;21081310;28;20547;-61
2021/10/28 01:42:32;;;;;;;6.93;4.50;;;;;;;;;;21081768;28;20044;-60
2021/10/28 01:52:39;;;;;;;8.73;5.20;;;;;;;;;;21078782;28;20083;-60
2021/10/28 02:02:42;;;;;;;7.28;4.90;;;;;;;;;;21077907;28;20232;-61
2021/10/28 02:12:45;;;;;;;8.00;5.10;;;;;;;;;;21070920;28;20459;-61
2021/10/28 02:22:47;;;;;;;8.30;5.40;;;;;;;;;;21079142;28;20146;-61
2021/10/28 02:32:52;;;;;;;9.20;4.95;;;;;;;;;;21079423;28;20048;-60
2021/10/28 02:42:56;;;;;;;11.45;5.38;;;;;;;;;;21079016;28;20044;-60
2021/10/28 02:53:01;;;;;;;11.90;4.93;;;;;;;;;;21077159;28;20508;-60
2021/10/28 03:03:06;;;;;;;7.63;5.50;;;;;;;;;;21081003;28;20808;-60
2021/10/28 03:13:22;;;;;;;9.23;5.03;;;;;;;;;;21092589;28;20058;-60
2021/10/28 03:34:10;;;;;;;9.18;4.88;;;;;;;;;;21072074;28;20044;-61
2021/10/28 03:44:58;;;;;;;10.30;5.20;;;;;;;;;;21090683;28;20071;-60
2021/10/28 03:55:09;;;;;;;9.05;5.35;;;;;;;;;;21089307;28;20048;-59
2021/10/28 04:36:19;;;;;;;11.40;5.22;;;;;;;;;;21087534;28;20048;-60
2021/10/28 04:46:22;;;;;;;7.28;5.15;;;;;;;;;;21085335;28;20504;-60
2021/10/28 04:56:27;;;;;;;10.23;6.32;;;;;;;;;;21084310;28;20044;-60
2021/10/28 05:06:30;;;;;;;7.63;6.03;;;;;;;;;;21083547;28;20127;-60
2021/10/28 05:16:33;;;;;;;10.27;5.90;;;;;;;;;;21083508;28;20047;-59
2021/10/28 05:26:35;;;;;;;10.35;6.65;;;;;;;;;;21082613;28;20118;-60
2021/10/28 05:36:38;;;;;;;9.18;6.25;;;;;;;;;;21081780;28;20036;-61
2021/10/28 05:46:41;;;;;;;10.27;6.05;;;;;;;;;;21080631;28;20139;-59
2021/10/28 05:56:43;;;;;;;14.30;6.20;;;;;;;;;;21079766;28;20080;-61
2021/10/28 06:06:45;;;;;;;11.27;6.47;;;;;;;;;;21079565;28;20048;-59
2021/10/28 06:16:51;;;;;;;13.60;6.45;;;;;;;;;;21079177;28;20079;-60
2021/10/28 06:26:52;;;;;;;10.90;6.18;;;;;;;;;;21059889;28;20044;-60
2021/10/28 06:37:01;;;;;;;9.03;5.43;;;;;;;;;;21079611;28;20408;-60
2021/10/28 06:47:22;;;;;;;8.93;5.38;;;;;;;;;;21095545;28;20044;-60
2021/10/28 07:08:21;;;;;;;13.02;6.13;;;;;;;;;;21093404;28;20099;-59
2021/10/28 07:18:54;;;;;;;22.58;7.15;;;;;;;;;;21093196;28;20102;-59
2021/10/28 07:30:16;;;;;;;22.27;7.85;;;;;;;;;;21090848;28;20052;-60
2021/10/28 08:31:34;;;;;;;22.87;10.90;;;;;;;;;;20829356;28;20045;-62
2021/10/28 08:41:38;;;;;;;16.35;10.15;;;;;;;;;;20957445;28;20044;-60
2021/10/28 09:33:08;;;;;;;17.23;8.82;;;;;;;;;;21082165;28;20484;-61
2021/10/28 09:54:30;;;;;;;10.98;7.82;;;;;;;;;;21078570;28;20059;-59
2021/10/28 10:04:19;;;;;;;;;;;;;;;;;;21028117;28;20044;-59
2021/10/28 10:14:22;;;;;;;12.48;6.63;;;;;;;;;;21050473;28;20018;-59
2021/10/28 16:27:03;;;;;;;5.77;3.40;;;;;;;;;;21087214;28;20056;-59
2021/10/28 16:37:06;;;;;;;6.67;3.30;;;;;;;;;;21085511;28;20105;-61
2021/10/28 16:47:08;;;;;;;9.73;3.75;;;;;;;;;;21085276;28;20036;-62
2021/10/28 16:57:11;;;;;;;9.15;3.00;;;;;;;;;;21084601;28;20055;-61
2021/10/28 17:07:14;;;;;;;7.90;3.58;;;;;;;;;;21083014;28;20079;-60
2021/10/28 17:17:17;;;;;;;7.27;2.93;;;;;;;;;;21081723;28;20040;-61
2021/10/28 17:27:20;;;;;;;9.15;3.20;;;;;;;;;;21080077;28;20097;-62
2021/10/28 17:37:23;;;;;;;6.80;4.15;;;;;;;;;;21079781;28;20083;-62
2021/10/28 17:47:25;;;;;;;8.38;4.43;;;;;;;;;;21079221;28;20056;-60
2021/10/28 17:57:27;;;;;;;11.73;4.93;;;;;;;;;;21077745;28;20051;-62
2021/10/28 18:07:29;;;;;;;8.85;4.82;;;;;;;;;;21078048;28;20059;-62
2021/10/28 18:17:32;;;;;;;10.98;5.40;;;;;;;;;;21077022;28;20489;-61
2021/10/28 18:27:33;;;;;;;12.35;5.90;;;;;;;;;;21076544;28;20423;-62
2021/10/28 18:37:35;;;;;;;13.27;6.30;;;;;;;;;;21076049;28;20067;-61
2021/10/28 18:47:37;;;;;;;11.18;6.40;;;;;;;;;;21077924;28;20052;-60
2021/10/28 18:57:39;;;;;;;12.30;6.35;;;;;;;;;;21076460;28;20209;-62
2021/10/28 19:07:45;;;;;;;9.10;5.93;;;;;;;;;;21074920;28;20059;-61
2021/10/28 19:17:50;;;;;;;11.50;5.53;;;;;;;;;;21075229;28;20052;-62
2021/10/28 19:27:54;;;;;;;7.50;4.85;;;;;;;;;;21074012;28;20062;-60
2021/10/28 19:48:37;;;;;;;8.93;4.88;;;;;;;;;;20824690;28;20640;-61
2021/10/28 19:58:42;;;;;;;9.65;4.75;;;;;;;;;;20829741;28;20486;-63
2021/10/28 20:29:06;;;;;;;8.02;4.80;;;;;;;;;;21085597;28;20052;-60
2021/10/28 20:39:07;;;;;;;11.10;4.90;;;;;;;;;;21084568;28;20052;-60
2021/10/28 20:49:10;;;;;;;12.23;6.55;;;;;;;;;;21085492;28;20476;-63
2021/10/28 20:59:11;;;;;;;11.40;5.60;;;;;;;;;;21084037;28;20531;-62
2021/10/28 21:09:12;;;;;;;12.68;5.43;;;;;;;;;;21084497;28;20174;-60
2021/10/28 21:19:14;;;;;;;8.07;5.20;;;;;;;;;;21083448;28;20052;-60
2021/10/28 21:29:17;;;;;;;10.43;5.07;;;;;;;;;;21082515;28;20527;-60
2021/10/28 21:39:19;;;;;;;10.73;5.53;;;;;;;;;;21081782;28;20501;-60
2021/10/28 21:49:23;;;;;;;12.63;5.72;;;;;;;;;;21080973;28;20052;-60
2021/10/28 22:30:34;;;;;;;11.27;5.77;;;;;;;;;;20821521;28;20107;-59
2021/10/28 22:40:38;;;;;;;13.43;6.68;;;;;;;;;;20881735;28;20506;-61
2021/10/28 22:50:41;;;;;;;14.73;7.47;;;;;;;;;;21077692;28;20052;-61
2021/10/28 23:20:57;;;;;;;12.82;7.35;;;;;;;;;;21082362;28;20044;-60
2021/10/28 23:30:59;;;;;;;12.60;6.80;;;;;;;;;;21092250;28;20052;-60
2021/10/28 23:41:01;;;;;;;15.45;7.53;;;;;;;;;;21091884;28;20048;-61
2021/10/28 23:51:03;;;;;;;14.25;7.18;;;;;;;;;;21090717;28;20048;-60
